sensor_id;sensor_type;location;lat;lon;timestamp;P1;durP1;ratioP1;P2;durP2;ratioP2
61473;SDS011;53694;49.784;30.150;2024-02-21T00:00:39;22.99;;;13.05;;
61473;SDS011;53694;49.784;30.150;2024-02-21T00:01:40;19.61;;;11.44;;
61473;SDS011;53694;49.784;30.150;2024-02-21T00:02:42;21.66;;;11.74;;
61473;SDS011;53694;49.784;30.150;2024-02-21T00:03:43;31.91;;;15.56;;
61473;SDS011;53694;49.784;30.150;2024-02-21T00:04:45;19.64;;;11.09;;
61473;SDS011;53694;49.784;30.150;2024-02-21T00:05:46;19.41;;;10.80;;
61473;SDS011;53694;49.784;30.150;2024-02-21T00:06:50;18.92;;;11.33;;
61473;SDS011;53694;49.784;30.150;2024-02-21T00:07:51;18.26;;;11.39;;
61473;SDS011;53694;49.784;30.150;2024-02-21T00:08:53;18.91;;;10.67;;
61473;SDS011;53694;49.784;30.150;2024-02-21T00:09:54;17.79;;;10.83;;
61473;SDS011;53694;49.784;30.150;2024-02-21T00:10:56;17.74;;;10.39;;
61473;SDS011;53694;49.784;30.150;2024-02-21T00:11:57;17.66;;;11.10;;
61473;SDS011;53694;49.784;30.150;2024-02-21T00:12:59;19.66;;;11.31;;
61473;SDS011;53694;49.784;30.150;2024-02-21T00:14:00;20.21;;;11.39;;
61473;SDS011;53694;49.784;30.150;2024-02-21T00:15:02;18.41;;;11.63;;
61473;SDS011;53694;49.784;30.150;2024-02-21T00:16:04;20.58;;;12.19;;
61473;SDS011;53694;49.784;30.150;2024-02-21T00:17:06;21.68;;;13.53;;
61473;SDS011;53694;49.784;30.150;2024-02-21T00:18:08;23.92;;;14.11;;
61473;SDS011;53694;49.784;30.150;2024-02-21T00:19:09;22.89;;;14.13;;
61473;SDS011;53694;49.784;30.150;2024-02-21T00:20:12;24.51;;;14.73;;
61473;SDS011;53694;49.784;30.150;2024-02-21T00:21:13;26.36;;;15.93;;
61473;SDS011;53694;49.784;30.150;2024-02-21T00:22:15;24.67;;;14.00;;
61473;SDS011;53694;49.784;30.150;2024-02-21T00:23:16;22.40;;;13.93;;
61473;SDS011;53694;49.784;30.150;2024-02-21T00:24:18;24.20;;;13.04;;
61473;SDS011;53694;49.784;30.150;2024-02-21T00:25:21;22.51;;;12.29;;
61473;SDS011;53694;49.784;30.150;2024-02-21T00:26:23;19.91;;;12.03;;
61473;SDS011;53694;49.784;30.150;2024-02-21T00:27:25;20.17;;;11.69;;
61473;SDS011;53694;49.784;30.150;2024-02-21T00:28:26;19.21;;;11.69;;
61473;SDS011;53694;49.784;30.150;2024-02-21T00:29:28;19.06;;;11.29;;
61473;SDS011;53694;49.784;30.150;2024-02-21T00:30:30;19.26;;;12.25;;
61473;SDS011;53694;49.784;30.150;2024-02-21T00:31:31;21.72;;;12.14;;
61473;SDS011;53694;49.784;30.150;2024-02-21T00:32:33;19.49;;;11.26;;
61473;SDS011;53694;49.784;30.150;2024-02-21T00:33:34;18.29;;;11.08;;
61473;SDS011;53694;49.784;30.150;2024-02-21T00:34:35;20.49;;;11.14;;
61473;SDS011;53694;49.784;30.150;2024-02-21T00:35:37;17.56;;;10.76;;
61473;SDS011;53694;49.784;30.150;2024-02-21T00:36:39;20.30;;;11.25;;
61473;SDS011;53694;49.784;30.150;2024-02-21T00:37:40;18.78;;;11.43;;
61473;SDS011;53694;49.784;30.150;2024-02-21T00:38:42;19.62;;;11.84;;
61473;SDS011;53694;49.784;30.150;2024-02-21T00:39:43;22.06;;;12.69;;
61473;SDS011;53694;49.784;30.150;2024-02-21T00:40:45;24.61;;;13.81;;
61473;SDS011;53694;49.784;30.150;2024-02-21T00:41:47;23.64;;;13.86;;
61473;SDS011;53694;49.784;30.150;2024-02-21T00:42:48;22.54;;;13.31;;
61473;SDS011;53694;49.784;30.150;2024-02-21T00:43:50;24.73;;;15.00;;
61473;SDS011;53694;49.784;30.150;2024-02-21T00:44:51;25.00;;;13.96;;
61473;SDS011;53694;49.784;30.150;2024-02-21T00:45:53;21.16;;;13.55;;
61473;SDS011;53694;49.784;30.150;2024-02-21T00:46:55;21.74;;;12.64;;
61473;SDS011;53694;49.784;30.150;2024-02-21T00:47:56;19.15;;;12.11;;
61473;SDS011;53694;49.784;30.150;2024-02-21T00:48:58;20.39;;;12.51;;
61473;SDS011;53694;49.784;30.150;2024-02-21T00:49:59;18.80;;;11.43;;
61473;SDS011;53694;49.784;30.150;2024-02-21T00:51:01;19.77;;;12.14;;
61473;SDS011;53694;49.784;30.150;2024-02-21T00:52:03;17.66;;;11.56;;
61473;SDS011;53694;49.784;30.150;2024-02-21T00:53:04;15.36;;;10.43;;
61473;SDS011;53694;49.784;30.150;2024-02-21T00:54:06;23.40;;;12.14;;
61473;SDS011;53694;49.784;30.150;2024-02-21T00:55:08;17.08;;;11.10;;
61473;SDS011;53694;49.784;30.150;2024-02-21T00:56:10;18.84;;;11.74;;
61473;SDS011;53694;49.784;30.150;2024-02-21T00:57:12;17.40;;;10.97;;
61473;SDS011;53694;49.784;30.150;2024-02-21T00:58:13;18.34;;;10.86;;
61473;SDS011;53694;49.784;30.150;2024-02-21T00:59:14;19.43;;;11.67;;
61473;SDS011;53694;49.784;30.150;2024-02-21T01:00:16;23.24;;;12.56;;
61473;SDS011;53694;49.784;30.150;2024-02-21T01:01:22;19.24;;;12.19;;
61473;SDS011;53694;49.784;30.150;2024-02-21T01:02:25;20.17;;;11.11;;
61473;SDS011;53694;49.784;30.150;2024-02-21T01:03:26;17.34;;;11.49;;
61473;SDS011;53694;49.784;30.150;2024-02-21T01:04:28;24.96;;;13.12;;
61473;SDS011;53694;49.784;30.150;2024-02-21T01:05:29;23.85;;;13.56;;
61473;SDS011;53694;49.784;30.150;2024-02-21T01:06:31;22.76;;;14.24;;
61473;SDS011;53694;49.784;30.150;2024-02-21T01:07:32;22.06;;;13.89;;
61473;SDS011;53694;49.784;30.150;2024-02-21T01:08:34;23.30;;;13.96;;
61473;SDS011;53694;49.784;30.150;2024-02-21T01:09:36;24.19;;;14.66;;
61473;SDS011;53694;49.784;30.150;2024-02-21T01:10:38;24.68;;;15.16;;
61473;SDS011;53694;49.784;30.150;2024-02-21T01:11:39;25.19;;;14.01;;
61473;SDS011;53694;49.784;30.150;2024-02-21T01:12:41;21.24;;;13.16;;
61473;SDS011;53694;49.784;30.150;2024-02-21T01:13:42;22.64;;;13.46;;
61473;SDS011;53694;49.784;30.150;2024-02-21T01:14:44;20.37;;;12.95;;
61473;SDS011;53694;49.784;30.150;2024-02-21T01:15:45;26.84;;;13.49;;
61473;SDS011;53694;49.784;30.150;2024-02-21T01:16:47;19.46;;;12.54;;
61473;SDS011;53694;49.784;30.150;2024-02-21T01:17:48;21.43;;;11.67;;
61473;SDS011;53694;49.784;30.150;2024-02-21T01:18:50;20.96;;;11.84;;
61473;SDS011;53694;49.784;30.150;2024-02-21T01:19:51;21.44;;;11.74;;
61473;SDS011;53694;49.784;30.150;2024-02-21T01:20:53;19.14;;;12.03;;
61473;SDS011;53694;49.784;30.150;2024-02-21T01:21:55;19.65;;;12.65;;
61473;SDS011;53694;49.784;30.150;2024-02-21T01:22:56;22.26;;;11.84;;
61473;SDS011;53694;49.784;30.150;2024-02-21T01:23:58;20.42;;;11.95;;
61473;SDS011;53694;49.784;30.150;2024-02-21T01:24:59;18.05;;;12.33;;
61473;SDS011;53694;49.784;30.150;2024-02-21T01:26:00;18.01;;;11.09;;
61473;SDS011;53694;49.784;30.150;2024-02-21T01:27:02;20.49;;;12.27;;
61473;SDS011;53694;49.784;30.150;2024-02-21T01:28:04;20.78;;;12.90;;
61473;SDS011;53694;49.784;30.150;2024-02-21T01:29:06;22.29;;;14.32;;
61473;SDS011;53694;49.784;30.150;2024-02-21T01:30:08;23.93;;;13.91;;
61473;SDS011;53694;49.784;30.150;2024-02-21T01:31:10;27.70;;;15.07;;
61473;SDS011;53694;49.784;30.150;2024-02-21T01:32:12;29.74;;;15.94;;
61473;SDS011;53694;49.784;30.150;2024-02-21T01:33:13;20.22;;;13.74;;
61473;SDS011;53694;49.784;30.150;2024-02-21T01:34:15;21.79;;;13.54;;
61473;SDS011;53694;49.784;30.150;2024-02-21T01:35:17;19.82;;;12.93;;
61473;SDS011;53694;49.784;30.150;2024-02-21T01:36:19;21.73;;;12.55;;
61473;SDS011;53694;49.784;30.150;2024-02-21T01:37:20;22.46;;;13.16;;
61473;SDS011;53694;49.784;30.150;2024-02-21T01:38:21;20.34;;;12.72;;
61473;SDS011;53694;49.784;30.150;2024-02-21T01:39:23;22.99;;;13.54;;
61473;SDS011;53694;49.784;30.150;2024-02-21T01:40:24;20.58;;;12.38;;
61473;SDS011;53694;49.784;30.150;2024-02-21T01:41:26;20.11;;;11.80;;
61473;SDS011;53694;49.784;30.150;2024-02-21T01:42:29;22.45;;;12.74;;
61473;SDS011;53694;49.784;30.150;2024-02-21T01:43:31;20.92;;;12.09;;
61473;SDS011;53694;49.784;30.150;2024-02-21T01:44:32;18.87;;;11.38;;
61473;SDS011;53694;49.784;30.150;2024-02-21T01:45:34;21.46;;;12.76;;
61473;SDS011;53694;49.784;30.150;2024-02-21T01:46:36;20.84;;;11.82;;
61473;SDS011;53694;49.784;30.150;2024-02-21T01:47:37;18.43;;;11.18;;
61473;SDS011;53694;49.784;30.150;2024-02-21T01:48:39;21.39;;;13.12;;
61473;SDS011;53694;49.784;30.150;2024-02-21T01:49:41;17.99;;;11.97;;
61473;SDS011;53694;49.784;30.150;2024-02-21T01:50:44;19.76;;;12.06;;
61473;SDS011;53694;49.784;30.150;2024-02-21T01:51:47;18.93;;;11.57;;
61473;SDS011;53694;49.784;30.150;2024-02-21T01:52:48;19.37;;;12.92;;
61473;SDS011;53694;49.784;30.150;2024-02-21T01:53:51;21.24;;;14.07;;
61473;SDS011;53694;49.784;30.150;2024-02-21T01:54:54;24.09;;;14.72;;
61473;SDS011;53694;49.784;30.150;2024-02-21T01:55:56;23.18;;;14.77;;
61473;SDS011;53694;49.784;30.150;2024-02-21T01:56:58;25.85;;;15.78;;
61473;SDS011;53694;49.784;30.150;2024-02-21T01:58:00;27.15;;;17.05;;
61473;SDS011;53694;49.784;30.150;2024-02-21T01:59:02;25.98;;;15.83;;
61473;SDS011;53694;49.784;30.150;2024-02-21T02:00:04;22.53;;;14.18;;
61473;SDS011;53694;49.784;30.150;2024-02-21T02:01:07;26.74;;;14.56;;
61473;SDS011;53694;49.784;30.150;2024-02-21T02:02:09;22.44;;;12.57;;
61473;SDS011;53694;49.784;30.150;2024-02-21T02:03:10;23.63;;;13.04;;
61473;SDS011;53694;49.784;30.150;2024-02-21T02:04:12;19.51;;;12.43;;
61473;SDS011;53694;49.784;30.150;2024-02-21T02:05:14;22.60;;;12.69;;
61473;SDS011;53694;49.784;30.150;2024-02-21T02:06:17;22.11;;;13.01;;
61473;SDS011;53694;49.784;30.150;2024-02-21T02:07:19;22.01;;;12.29;;
61473;SDS011;53694;49.784;30.150;2024-02-21T02:08:21;20.71;;;12.69;;
61473;SDS011;53694;49.784;30.150;2024-02-21T02:09:23;21.37;;;13.09;;
61473;SDS011;53694;49.784;30.150;2024-02-21T02:10:24;22.15;;;12.55;;
61473;SDS011;53694;49.784;30.150;2024-02-21T02:11:26;20.19;;;11.68;;
61473;SDS011;53694;49.784;30.150;2024-02-21T02:12:28;21.08;;;12.14;;
61473;SDS011;53694;49.784;30.150;2024-02-21T02:13:29;20.62;;;12.39;;
61473;SDS011;53694;49.784;30.150;2024-02-21T02:14:31;21.52;;;13.48;;
61473;SDS011;53694;49.784;30.150;2024-02-21T02:15:42;20.34;;;13.12;;
61473;SDS011;53694;49.784;30.150;2024-02-21T02:16:46;24.42;;;13.32;;
61473;SDS011;53694;49.784;30.150;2024-02-21T02:17:48;20.49;;;12.54;;
61473;SDS011;53694;49.784;30.150;2024-02-21T02:18:49;24.06;;;14.08;;
61473;SDS011;53694;49.784;30.150;2024-02-21T02:19:51;22.67;;;14.21;;
61473;SDS011;53694;49.784;30.150;2024-02-21T02:20:53;22.11;;;14.24;;
61473;SDS011;53694;49.784;30.150;2024-02-21T02:21:56;25.61;;;15.36;;
61473;SDS011;53694;49.784;30.150;2024-02-21T02:23:00;25.88;;;16.66;;
61473;SDS011;53694;49.784;30.150;2024-02-21T02:24:05;26.05;;;16.38;;
61473;SDS011;53694;49.784;30.150;2024-02-21T02:25:07;25.11;;;15.18;;
61473;SDS011;53694;49.784;30.150;2024-02-21T02:26:10;23.53;;;14.35;;
61473;SDS011;53694;49.784;30.150;2024-02-21T02:27:11;23.02;;;14.11;;
61473;SDS011;53694;49.784;30.150;2024-02-21T02:28:12;21.43;;;13.64;;
61473;SDS011;53694;49.784;30.150;2024-02-21T02:29:14;22.23;;;12.76;;
61473;SDS011;53694;49.784;30.150;2024-02-21T02:30:16;19.21;;;12.27;;
61473;SDS011;53694;49.784;30.150;2024-02-21T02:31:18;22.44;;;13.39;;
61473;SDS011;53694;49.784;30.150;2024-02-21T02:32:19;19.93;;;12.54;;
61473;SDS011;53694;49.784;30.150;2024-02-21T02:33:21;22.37;;;12.74;;
61473;SDS011;53694;49.784;30.150;2024-02-21T02:34:22;22.39;;;13.43;;
61473;SDS011;53694;49.784;30.150;2024-02-21T02:35:24;19.31;;;12.85;;
61473;SDS011;53694;49.784;30.150;2024-02-21T02:36:25;20.39;;;13.31;;
61473;SDS011;53694;49.784;30.150;2024-02-21T02:37:27;22.99;;;12.79;;
61473;SDS011;53694;49.784;30.150;2024-02-21T02:38:28;21.63;;;12.71;;
61473;SDS011;53694;49.784;30.150;2024-02-21T02:39:30;20.64;;;12.91;;
61473;SDS011;53694;49.784;30.150;2024-02-21T02:40:32;21.35;;;13.09;;
61473;SDS011;53694;49.784;30.150;2024-02-21T02:41:36;20.23;;;12.61;;
61473;SDS011;53694;49.784;30.150;2024-02-21T02:42:37;26.29;;;15.54;;
61473;SDS011;53694;49.784;30.150;2024-02-21T02:43:39;25.30;;;16.00;;
61473;SDS011;53694;49.784;30.150;2024-02-21T02:44:40;26.66;;;16.67;;
61473;SDS011;53694;49.784;30.150;2024-02-21T02:45:42;27.26;;;16.68;;
61473;SDS011;53694;49.784;30.150;2024-02-21T02:46:43;24.98;;;16.11;;
61473;SDS011;53694;49.784;30.150;2024-02-21T02:47:45;30.82;;;18.59;;
61473;SDS011;53694;49.784;30.150;2024-02-21T02:48:47;24.99;;;15.87;;
61473;SDS011;53694;49.784;30.150;2024-02-21T02:49:48;25.08;;;14.54;;
61473;SDS011;53694;49.784;30.150;2024-02-21T02:50:50;22.82;;;14.74;;
61473;SDS011;53694;49.784;30.150;2024-02-21T02:51:52;23.18;;;14.34;;
61473;SDS011;53694;49.784;30.150;2024-02-21T02:52:53;22.89;;;14.71;;
61473;SDS011;53694;49.784;30.150;2024-02-21T02:53:55;22.92;;;13.35;;
61473;SDS011;53694;49.784;30.150;2024-02-21T02:54:57;22.84;;;13.51;;
61473;SDS011;53694;49.784;30.150;2024-02-21T02:55:59;20.76;;;13.46;;
61473;SDS011;53694;49.784;30.150;2024-02-21T02:57:01;23.75;;;13.95;;
61473;SDS011;53694;49.784;30.150;2024-02-21T02:58:03;23.51;;;13.80;;
61473;SDS011;53694;49.784;30.150;2024-02-21T02:59:04;22.45;;;13.37;;
61473;SDS011;53694;49.784;30.150;2024-02-21T03:00:07;21.97;;;13.04;;
61473;SDS011;53694;49.784;30.150;2024-02-21T03:01:09;21.66;;;13.14;;
61473;SDS011;53694;49.784;30.150;2024-02-21T03:02:10;21.29;;;13.30;;
61473;SDS011;53694;49.784;30.150;2024-02-21T03:03:12;23.28;;;14.61;;
61473;SDS011;53694;49.784;30.150;2024-02-21T03:04:13;23.78;;;14.80;;
61473;SDS011;53694;49.784;30.150;2024-02-21T03:05:19;23.15;;;14.58;;
61473;SDS011;53694;49.784;30.150;2024-02-21T03:06:19;23.92;;;16.07;;
61473;SDS011;53694;49.784;30.150;2024-02-21T03:07:21;28.22;;;16.33;;
61473;SDS011;53694;49.784;30.150;2024-02-21T03:08:23;26.31;;;16.38;;
61473;SDS011;53694;49.784;30.150;2024-02-21T03:09:24;27.66;;;17.08;;
61473;SDS011;53694;49.784;30.150;2024-02-21T03:10:26;25.05;;;16.15;;
61473;SDS011;53694;49.784;30.150;2024-02-21T03:11:27;23.01;;;14.22;;
61473;SDS011;53694;49.784;30.150;2024-02-21T03:12:29;24.73;;;14.94;;
61473;SDS011;53694;49.784;30.150;2024-02-21T03:13:30;31.64;;;16.34;;
61473;SDS011;53694;49.784;30.150;2024-02-21T03:14:32;25.76;;;14.55;;
61473;SDS011;53694;49.784;30.150;2024-02-21T03:15:34;21.85;;;13.80;;
61473;SDS011;53694;49.784;30.150;2024-02-21T03:16:35;20.49;;;13.19;;
61473;SDS011;53694;49.784;30.150;2024-02-21T03:17:37;22.54;;;13.67;;
61473;SDS011;53694;49.784;30.150;2024-02-21T03:18:38;21.16;;;13.04;;
61473;SDS011;53694;49.784;30.150;2024-02-21T03:19:40;20.61;;;13.26;;
61473;SDS011;53694;49.784;30.150;2024-02-21T03:20:42;19.92;;;12.24;;
61473;SDS011;53694;49.784;30.150;2024-02-21T03:21:43;19.09;;;11.61;;
61473;SDS011;53694;49.784;30.150;2024-02-21T03:22:45;19.83;;;12.47;;
61473;SDS011;53694;49.784;30.150;2024-02-21T03:23:46;23.96;;;12.97;;
61473;SDS011;53694;49.784;30.150;2024-02-21T03:24:48;21.15;;;12.79;;
61473;SDS011;53694;49.784;30.150;2024-02-21T03:25:49;20.47;;;13.39;;
61473;SDS011;53694;49.784;30.150;2024-02-21T03:26:51;21.79;;;14.09;;
61473;SDS011;53694;49.784;30.150;2024-02-21T03:27:53;25.69;;;15.29;;
61473;SDS011;53694;49.784;30.150;2024-02-21T03:28:54;24.89;;;15.50;;
61473;SDS011;53694;49.784;30.150;2024-02-21T03:29:56;24.94;;;16.11;;
61473;SDS011;53694;49.784;30.150;2024-02-21T03:30:57;29.27;;;16.38;;
61473;SDS011;53694;49.784;30.150;2024-02-21T03:31:59;28.97;;;15.30;;
61473;SDS011;53694;49.784;30.150;2024-02-21T03:33:01;24.59;;;14.16;;
61473;SDS011;53694;49.784;30.150;2024-02-21T03:34:03;22.25;;;13.17;;
61473;SDS011;53694;49.784;30.150;2024-02-21T03:35:05;22.06;;;13.97;;
61473;SDS011;53694;49.784;30.150;2024-02-21T03:36:12;21.53;;;13.04;;
61473;SDS011;53694;49.784;30.150;2024-02-21T03:37:14;21.00;;;12.89;;
61473;SDS011;53694;49.784;30.150;2024-02-21T03:38:16;20.88;;;12.53;;
61473;SDS011;53694;49.784;30.150;2024-02-21T03:39:17;21.40;;;13.33;;
61473;SDS011;53694;49.784;30.150;2024-02-21T03:40:20;22.44;;;12.94;;
61473;SDS011;53694;49.784;30.150;2024-02-21T03:41:22;18.75;;;12.06;;
61473;SDS011;53694;49.784;30.150;2024-02-21T03:42:23;21.29;;;13.23;;
61473;SDS011;53694;49.784;30.150;2024-02-21T03:43:25;22.01;;;13.08;;
61473;SDS011;53694;49.784;30.150;2024-02-21T03:44:26;22.26;;;13.33;;
61473;SDS011;53694;49.784;30.150;2024-02-21T03:45:28;22.04;;;12.32;;
61473;SDS011;53694;49.784;30.150;2024-02-21T03:46:30;19.03;;;12.64;;
61473;SDS011;53694;49.784;30.150;2024-02-21T03:47:31;22.06;;;13.08;;
61473;SDS011;53694;49.784;30.150;2024-02-21T03:48:33;21.45;;;14.13;;
61473;SDS011;53694;49.784;30.150;2024-02-21T03:49:34;25.54;;;14.64;;
61473;SDS011;53694;49.784;30.150;2024-02-21T03:50:36;25.65;;;15.31;;
61473;SDS011;53694;49.784;30.150;2024-02-21T03:51:37;23.63;;;15.79;;
61473;SDS011;53694;49.784;30.150;2024-02-21T03:52:39;26.49;;;16.76;;
61473;SDS011;53694;49.784;30.150;2024-02-21T03:53:40;28.31;;;17.34;;
61473;SDS011;53694;49.784;30.150;2024-02-21T03:54:42;25.53;;;16.58;;
61473;SDS011;53694;49.784;30.150;2024-02-21T03:55:43;26.60;;;15.37;;
61473;SDS011;53694;49.784;30.150;2024-02-21T03:56:45;25.03;;;15.03;;
61473;SDS011;53694;49.784;30.150;2024-02-21T03:57:47;23.88;;;14.14;;
61473;SDS011;53694;49.784;30.150;2024-02-21T03:58:48;25.08;;;15.14;;
61473;SDS011;53694;49.784;30.150;2024-02-21T03:59:50;21.54;;;13.52;;
61473;SDS011;53694;49.784;30.150;2024-02-21T04:00:52;23.36;;;13.97;;
61473;SDS011;53694;49.784;30.150;2024-02-21T04:01:54;22.20;;;13.30;;
61473;SDS011;53694;49.784;30.150;2024-02-21T04:02:55;21.56;;;12.88;;
61473;SDS011;53694;49.784;30.150;2024-02-21T04:03:57;20.26;;;12.99;;
61473;SDS011;53694;49.784;30.150;2024-02-21T04:04:58;20.79;;;12.84;;
61473;SDS011;53694;49.784;30.150;2024-02-21T04:06:00;21.29;;;13.66;;
61473;SDS011;53694;49.784;30.150;2024-02-21T04:07:01;24.06;;;13.09;;
61473;SDS011;53694;49.784;30.150;2024-02-21T04:08:04;23.31;;;13.84;;
61473;SDS011;53694;49.784;30.150;2024-02-21T04:09:06;19.29;;;12.61;;
61473;SDS011;53694;49.784;30.150;2024-02-21T04:10:08;24.78;;;14.33;;
61473;SDS011;53694;49.784;30.150;2024-02-21T04:11:10;21.58;;;13.35;;
61473;SDS011;53694;49.784;30.150;2024-02-21T04:12:11;23.46;;;12.90;;
61473;SDS011;53694;49.784;30.150;2024-02-21T04:13:12;25.26;;;14.71;;
61473;SDS011;53694;49.784;30.150;2024-02-21T04:14:14;21.04;;;14.36;;
61473;SDS011;53694;49.784;30.150;2024-02-21T04:15:16;25.29;;;16.14;;
61473;SDS011;53694;49.784;30.150;2024-02-21T04:16:18;26.12;;;15.68;;
61473;SDS011;53694;49.784;30.150;2024-02-21T04:17:20;26.87;;;16.99;;
61473;SDS011;53694;49.784;30.150;2024-02-21T04:18:21;27.77;;;16.84;;
61473;SDS011;53694;49.784;30.150;2024-02-21T04:19:22;25.84;;;16.24;;
61473;SDS011;53694;49.784;30.150;2024-02-21T04:20:24;24.19;;;14.41;;
61473;SDS011;53694;49.784;30.150;2024-02-21T04:21:26;23.41;;;14.99;;
61473;SDS011;53694;49.784;30.150;2024-02-21T04:22:27;21.95;;;14.69;;
61473;SDS011;53694;49.784;30.150;2024-02-21T04:23:28;24.66;;;13.79;;
61473;SDS011;53694;49.784;30.150;2024-02-21T04:24:30;21.41;;;12.24;;
61473;SDS011;53694;49.784;30.150;2024-02-21T04:25:33;24.24;;;13.48;;
61473;SDS011;53694;49.784;30.150;2024-02-21T04:26:35;21.96;;;13.25;;
61473;SDS011;53694;49.784;30.150;2024-02-21T04:27:37;21.20;;;13.26;;
61473;SDS011;53694;49.784;30.150;2024-02-21T04:28:40;23.11;;;14.12;;
61473;SDS011;53694;49.784;30.150;2024-02-21T04:29:41;24.84;;;13.83;;
61473;SDS011;53694;49.784;30.150;2024-02-21T04:30:43;24.37;;;15.05;;
61473;SDS011;53694;49.784;30.150;2024-02-21T04:31:44;22.59;;;13.54;;
61473;SDS011;53694;49.784;30.150;2024-02-21T04:32:46;24.19;;;13.76;;
61473;SDS011;53694;49.784;30.150;2024-02-21T04:33:47;21.03;;;13.51;;
61473;SDS011;53694;49.784;30.150;2024-02-21T04:34:49;20.24;;;12.79;;
61473;SDS011;53694;49.784;30.150;2024-02-21T04:35:50;22.64;;;13.54;;
61473;SDS011;53694;49.784;30.150;2024-02-21T04:36:52;23.29;;;13.93;;
61473;SDS011;53694;49.784;30.150;2024-02-21T04:37:53;25.12;;;14.64;;
61473;SDS011;53694;49.784;30.150;2024-02-21T04:38:55;26.59;;;15.10;;
61473;SDS011;53694;49.784;30.150;2024-02-21T04:39:57;28.00;;;15.99;;
61473;SDS011;53694;49.784;30.150;2024-02-21T04:40:59;24.71;;;15.91;;
61473;SDS011;53694;49.784;30.150;2024-02-21T04:42:00;28.89;;;17.33;;
61473;SDS011;53694;49.784;30.150;2024-02-21T04:43:02;30.49;;;18.31;;
61473;SDS011;53694;49.784;30.150;2024-02-21T04:44:04;28.69;;;18.33;;
61473;SDS011;53694;49.784;30.150;2024-02-21T04:45:06;32.65;;;18.66;;
61473;SDS011;53694;49.784;30.150;2024-02-21T04:46:08;26.53;;;15.74;;
61473;SDS011;53694;49.784;30.150;2024-02-21T04:47:09;23.51;;;15.04;;
61473;SDS011;53694;49.784;30.150;2024-02-21T04:48:11;25.59;;;14.73;;
61473;SDS011;53694;49.784;30.150;2024-02-21T04:49:13;27.20;;;16.08;;
61473;SDS011;53694;49.784;30.150;2024-02-21T04:50:14;25.16;;;14.39;;
61473;SDS011;53694;49.784;30.150;2024-02-21T04:51:16;21.88;;;14.05;;
61473;SDS011;53694;49.784;30.150;2024-02-21T04:52:17;26.09;;;15.08;;
61473;SDS011;53694;49.784;30.150;2024-02-21T04:53:19;22.00;;;13.89;;
61473;SDS011;53694;49.784;30.150;2024-02-21T04:54:21;23.11;;;13.86;;
61473;SDS011;53694;49.784;30.150;2024-02-21T04:55:24;23.42;;;14.45;;
61473;SDS011;53694;49.784;30.150;2024-02-21T04:56:25;22.18;;;14.11;;
61473;SDS011;53694;49.784;30.150;2024-02-21T04:57:27;23.18;;;14.19;;
61473;SDS011;53694;49.784;30.150;2024-02-21T04:58:28;24.51;;;14.43;;
61473;SDS011;53694;49.784;30.150;2024-02-21T04:59:30;23.51;;;14.46;;
61473;SDS011;53694;49.784;30.150;2024-02-21T05:00:32;24.46;;;13.63;;
61473;SDS011;53694;49.784;30.150;2024-02-21T05:01:33;21.61;;;14.12;;
61473;SDS011;53694;49.784;30.150;2024-02-21T05:02:35;23.58;;;15.40;;
61473;SDS011;53694;49.784;30.150;2024-02-21T05:03:36;28.04;;;15.77;;
61473;SDS011;53694;49.784;30.150;2024-02-21T05:04:40;24.39;;;16.12;;
61473;SDS011;53694;49.784;30.150;2024-02-21T05:05:43;26.84;;;18.06;;
61473;SDS011;53694;49.784;30.150;2024-02-21T05:06:45;43.69;;;26.98;;
61473;SDS011;53694;49.784;30.150;2024-02-21T05:07:46;26.56;;;17.62;;
61473;SDS011;53694;49.784;30.150;2024-02-21T05:08:48;28.09;;;18.04;;
61473;SDS011;53694;49.784;30.150;2024-02-21T05:09:49;27.55;;;16.81;;
61473;SDS011;53694;49.784;30.150;2024-02-21T05:10:51;28.10;;;16.10;;
61473;SDS011;53694;49.784;30.150;2024-02-21T05:11:53;26.85;;;15.79;;
61473;SDS011;53694;49.784;30.150;2024-02-21T05:12:54;28.26;;;15.31;;
61473;SDS011;53694;49.784;30.150;2024-02-21T05:13:56;26.25;;;14.32;;
61473;SDS011;53694;49.784;30.150;2024-02-21T05:14:57;24.53;;;14.27;;
61473;SDS011;53694;49.784;30.150;2024-02-21T05:15:59;23.00;;;14.41;;
61473;SDS011;53694;49.784;30.150;2024-02-21T05:17:01;20.51;;;13.52;;
61473;SDS011;53694;49.784;30.150;2024-02-21T05:18:02;21.84;;;13.79;;
61473;SDS011;53694;49.784;30.150;2024-02-21T05:19:04;22.89;;;14.23;;
61473;SDS011;53694;49.784;30.150;2024-02-21T05:20:07;20.55;;;13.53;;
61473;SDS011;53694;49.784;30.150;2024-02-21T05:21:09;23.85;;;13.71;;
61473;SDS011;53694;49.784;30.150;2024-02-21T05:22:10;23.45;;;13.69;;
61473;SDS011;53694;49.784;30.150;2024-02-21T05:23:12;23.99;;;14.45;;
61473;SDS011;53694;49.784;30.150;2024-02-21T05:24:14;24.20;;;14.36;;
61473;SDS011;53694;49.784;30.150;2024-02-21T05:25:15;26.56;;;14.89;;
61473;SDS011;53694;49.784;30.150;2024-02-21T05:26:24;20.71;;;14.05;;
61473;SDS011;53694;49.784;30.150;2024-02-21T05:27:24;25.11;;;15.08;;
61473;SDS011;53694;49.784;30.150;2024-02-21T05:28:25;24.83;;;15.91;;
61473;SDS011;53694;49.784;30.150;2024-02-21T05:29:28;27.15;;;16.68;;
61473;SDS011;53694;49.784;30.150;2024-02-21T05:30:29;28.22;;;17.96;;
61473;SDS011;53694;49.784;30.150;2024-02-21T05:31:42;25.21;;;17.28;;
61473;SDS011;53694;49.784;30.150;2024-02-21T05:32:54;27.96;;;18.09;;
61473;SDS011;53694;49.784;30.150;2024-02-21T05:33:56;29.16;;;18.36;;
61473;SDS011;53694;49.784;30.150;2024-02-21T05:34:57;25.86;;;16.84;;
61473;SDS011;53694;49.784;30.150;2024-02-21T05:35:59;26.15;;;15.58;;
61473;SDS011;53694;49.784;30.150;2024-02-21T05:37:00;26.14;;;16.01;;
61473;SDS011;53694;49.784;30.150;2024-02-21T05:38:02;22.93;;;14.76;;
61473;SDS011;53694;49.784;30.150;2024-02-21T05:39:04;24.86;;;14.59;;
61473;SDS011;53694;49.784;30.150;2024-02-21T05:40:06;25.35;;;15.20;;
61473;SDS011;53694;49.784;30.150;2024-02-21T05:41:08;22.69;;;14.87;;
61473;SDS011;53694;49.784;30.150;2024-02-21T05:42:09;25.21;;;14.71;;
61473;SDS011;53694;49.784;30.150;2024-02-21T05:43:11;26.36;;;14.40;;
61473;SDS011;53694;49.784;30.150;2024-02-21T05:44:13;21.37;;;14.00;;
61473;SDS011;53694;49.784;30.150;2024-02-21T05:45:15;24.32;;;14.29;;
61473;SDS011;53694;49.784;30.150;2024-02-21T05:46:19;22.10;;;13.82;;
61473;SDS011;53694;49.784;30.150;2024-02-21T05:47:20;23.60;;;14.16;;
61473;SDS011;53694;49.784;30.150;2024-02-21T05:48:22;28.49;;;15.44;;
61473;SDS011;53694;49.784;30.150;2024-02-21T05:49:24;23.19;;;14.91;;
61473;SDS011;53694;49.784;30.150;2024-02-21T05:50:26;24.79;;;15.18;;
61473;SDS011;53694;49.784;30.150;2024-02-21T05:51:27;24.80;;;15.97;;
61473;SDS011;53694;49.784;30.150;2024-02-21T05:52:31;26.99;;;16.84;;
61473;SDS011;53694;49.784;30.150;2024-02-21T05:53:32;28.36;;;16.66;;
61473;SDS011;53694;49.784;30.150;2024-02-21T05:54:34;28.42;;;17.50;;
61473;SDS011;53694;49.784;30.150;2024-02-21T05:55:42;28.74;;;18.66;;
61473;SDS011;53694;49.784;30.150;2024-02-21T05:56:47;25.80;;;16.86;;